sensor_id;sensor_type;location;lat;lon;timestamp;P1;durP1;ratioP1;P2;durP2;ratioP2
39454;SDS011;25155;41.890;23.446;2023-03-01T00:02:21;1.50;;;1.40;;
39454;SDS011;25155;41.890;23.446;2023-03-01T00:04:49;1.13;;;1.05;;
39454;SDS011;25155;41.890;23.446;2023-03-01T00:07:16;1.20;;;1.10;;
39454;SDS011;25155;41.890;23.446;2023-03-01T00:09:43;1.10;;;1.10;;
39454;SDS011;25155;41.890;23.446;2023-03-01T00:12:12;1.40;;;1.30;;
39454;SDS011;25155;41.890;23.446;2023-03-01T00:14:39;1.15;;;1.10;;
39454;SDS011;25155;41.890;23.446;2023-03-01T00:17:07;1.38;;;1.27;;
39454;SDS011;25155;41.890;23.446;2023-03-01T00:19:34;2.13;;;1.60;;
39454;SDS011;25155;41.890;23.446;2023-03-01T00:22:01;1.30;;;1.20;;
39454;SDS011;25155;41.890;23.446;2023-03-01T00:24:29;1.98;;;1.50;;
39454;SDS011;25155;41.890;23.446;2023-03-01T00:26:56;2.53;;;1.55;;
39454;SDS011;25155;41.890;23.446;2023-03-01T00:29:24;1.35;;;1.20;;
39454;SDS011;25155;41.890;23.446;2023-03-01T00:31:52;1.63;;;1.40;;
39454;SDS011;25155;41.890;23.446;2023-03-01T00:34:19;2.28;;;1.58;;
39454;SDS011;25155;41.890;23.446;2023-03-01T00:36:47;2.30;;;1.63;;
39454;SDS011;25155;41.890;23.446;2023-03-01T00:39:14;2.28;;;1.70;;
39454;SDS011;25155;41.890;23.446;2023-03-01T00:41:42;3.20;;;2.10;;
39454;SDS011;25155;41.890;23.446;2023-03-01T00:44:09;3.70;;;1.90;;
39454;SDS011;25155;41.890;23.446;2023-03-01T00:46:38;2.47;;;1.75;;
39454;SDS011;25155;41.890;23.446;2023-03-01T00:49:05;2.08;;;1.67;;
39454;SDS011;25155;41.890;23.446;2023-03-01T00:51:33;2.63;;;1.73;;
39454;SDS011;25155;41.890;23.446;2023-03-01T00:54:01;3.17;;;2.00;;
39454;SDS011;25155;41.890;23.446;2023-03-01T00:56:30;4.03;;;1.95;;
39454;SDS011;25155;41.890;23.446;2023-03-01T00:58:57;2.97;;;1.88;;
39454;SDS011;25155;41.890;23.446;2023-03-01T01:01:25;3.65;;;2.28;;
39454;SDS011;25155;41.890;23.446;2023-03-01T01:03:58;3.63;;;2.17;;
39454;SDS011;25155;41.890;23.446;2023-03-01T01:06:27;3.30;;;2.08;;
39454;SDS011;25155;41.890;23.446;2023-03-01T01:08:57;3.55;;;1.90;;
39454;SDS011;25155;41.890;23.446;2023-03-01T01:11:27;1.67;;;1.55;;
39454;SDS011;25155;41.890;23.446;2023-03-01T01:13:55;2.95;;;1.90;;
39454;SDS011;25155;41.890;23.446;2023-03-01T01:16:24;3.10;;;1.95;;
39454;SDS011;25155;41.890;23.446;2023-03-01T01:18:53;3.20;;;2.10;;
39454;SDS011;25155;41.890;23.446;2023-03-01T01:21:23;3.15;;;2.10;;
39454;SDS011;25155;41.890;23.446;2023-03-01T01:23:52;4.13;;;1.90;;
39454;SDS011;25155;41.890;23.446;2023-03-01T01:26:21;3.47;;;1.90;;
39454;SDS011;25155;41.890;23.446;2023-03-01T01:28:50;2.50;;;1.80;;
39454;SDS011;25155;41.890;23.446;2023-03-01T01:31:19;2.92;;;1.95;;
39454;SDS011;25155;41.890;23.446;2023-03-01T01:33:49;4.18;;;2.10;;
39454;SDS011;25155;41.890;23.446;2023-03-01T01:36:16;2.78;;;1.92;;
39454;SDS011;25155;41.890;23.446;2023-03-01T01:38:45;4.70;;;2.20;;
39454;SDS011;25155;41.890;23.446;2023-03-01T01:41:13;5.32;;;2.30;;
39454;SDS011;25155;41.890;23.446;2023-03-01T01:43:42;2.92;;;2.13;;
39454;SDS011;25155;41.890;23.446;2023-03-01T01:46:14;4.40;;;2.60;;
39454;SDS011;25155;41.890;23.446;2023-03-01T01:48:48;5.07;;;2.80;;
39454;SDS011;25155;41.890;23.446;2023-03-01T01:53:50;3.33;;;2.28;;
39454;SDS011;25155;41.890;23.446;2023-03-01T01:56:21;5.93;;;2.90;;
39454;SDS011;25155;41.890;23.446;2023-03-01T01:58:52;4.50;;;2.70;;
39454;SDS011;25155;41.890;23.446;2023-03-01T02:01:20;4.65;;;2.70;;
39454;SDS011;25155;41.890;23.446;2023-03-01T02:03:47;3.55;;;2.30;;
39454;SDS011;25155;41.890;23.446;2023-03-01T02:06:18;3.60;;;2.40;;
39454;SDS011;25155;41.890;23.446;2023-03-01T02:08:55;3.90;;;2.10;;
39454;SDS011;25155;41.890;23.446;2023-03-01T02:11:26;3.70;;;2.22;;
39454;SDS011;25155;41.890;23.446;2023-03-01T02:13:56;3.05;;;1.90;;
39454;SDS011;25155;41.890;23.446;2023-03-01T02:16:23;3.47;;;2.30;;
39454;SDS011;25155;41.890;23.446;2023-03-01T02:18:52;3.53;;;2.30;;
39454;SDS011;25155;41.890;23.446;2023-03-01T02:21:35;3.90;;;2.30;;
39454;SDS011;25155;41.890;23.446;2023-03-01T02:24:13;3.60;;;2.28;;
39454;SDS011;25155;41.890;23.446;2023-03-01T02:26:52;4.07;;;2.50;;
39454;SDS011;25155;41.890;23.446;2023-03-01T02:29:23;6.50;;;2.60;;
39454;SDS011;25155;41.890;23.446;2023-03-01T02:31:52;3.92;;;2.42;;
39454;SDS011;25155;41.890;23.446;2023-03-01T02:34:22;3.72;;;2.20;;
39454;SDS011;25155;41.890;23.446;2023-03-01T02:36:52;3.58;;;2.22;;
39454;SDS011;25155;41.890;23.446;2023-03-01T02:39:25;2.83;;;2.10;;
39454;SDS011;25155;41.890;23.446;2023-03-01T02:41:56;2.85;;;1.90;;
39454;SDS011;25155;41.890;23.446;2023-03-01T02:44:27;4.03;;;2.80;;
39454;SDS011;25155;41.890;23.446;2023-03-01T02:46:55;4.65;;;2.95;;
39454;SDS011;25155;41.890;23.446;2023-03-01T02:49:24;3.67;;;2.70;;
39454;SDS011;25155;41.890;23.446;2023-03-01T02:52:01;4.07;;;2.53;;
39454;SDS011;25155;41.890;23.446;2023-03-01T02:54:39;5.45;;;2.22;;
39454;SDS011;25155;41.890;23.446;2023-03-01T02:57:13;3.15;;;2.00;;
39454;SDS011;25155;41.890;23.446;2023-03-01T02:59:42;3.20;;;2.20;;
39454;SDS011;25155;41.890;23.446;2023-03-01T03:02:18;2.83;;;1.90;;
39454;SDS011;25155;41.890;23.446;2023-03-01T03:05:02;2.58;;;1.80;;
39454;SDS011;25155;41.890;23.446;2023-03-01T03:07:33;2.83;;;2.00;;
39454;SDS011;25155;41.890;23.446;2023-03-01T03:10:01;2.33;;;1.67;;
39454;SDS011;25155;41.890;23.446;2023-03-01T03:12:30;2.45;;;1.80;;
39454;SDS011;25155;41.890;23.446;2023-03-01T03:14:59;3.22;;;2.20;;
39454;SDS011;25155;41.890;23.446;2023-03-01T03:17:26;3.45;;;2.20;;
39454;SDS011;25155;41.890;23.446;2023-03-01T03:19:53;4.03;;;2.63;;
39454;SDS011;25155;41.890;23.446;2023-03-01T03:22:21;3.53;;;2.20;;
39454;SDS011;25155;41.890;23.446;2023-03-01T03:24:48;3.35;;;2.10;;
39454;SDS011;25155;41.890;23.446;2023-03-01T03:27:15;2.95;;;1.90;;
39454;SDS011;25155;41.890;23.446;2023-03-01T03:29:43;3.15;;;2.20;;
39454;SDS011;25155;41.890;23.446;2023-03-01T03:32:11;3.65;;;2.30;;
39454;SDS011;25155;41.890;23.446;2023-03-01T03:34:38;3.00;;;2.08;;
39454;SDS011;25155;41.890;23.446;2023-03-01T03:37:06;4.00;;;2.47;;
39454;SDS011;25155;41.890;23.446;2023-03-01T03:39:54;2.90;;;2.10;;
39454;SDS011;25155;41.890;23.446;2023-03-01T03:42:21;3.50;;;2.40;;
39454;SDS011;25155;41.890;23.446;2023-03-01T03:44:48;3.63;;;2.30;;
39454;SDS011;25155;41.890;23.446;2023-03-01T03:47:17;3.47;;;2.33;;
39454;SDS011;25155;41.890;23.446;2023-03-01T03:49:44;3.88;;;2.63;;
39454;SDS011;25155;41.890;23.446;2023-03-01T03:52:11;4.75;;;3.20;;
39454;SDS011;25155;41.890;23.446;2023-03-01T03:54:39;5.22;;;3.65;;
39454;SDS011;25155;41.890;23.446;2023-03-01T03:57:07;4.88;;;3.30;;
39454;SDS011;25155;41.890;23.446;2023-03-01T03:59:34;5.57;;;3.40;;
39454;SDS011;25155;41.890;23.446;2023-03-01T04:02:01;5.45;;;3.35;;
39454;SDS011;25155;41.890;23.446;2023-03-01T04:04:29;6.13;;;4.03;;
39454;SDS011;25155;41.890;23.446;2023-03-01T04:06:56;6.90;;;3.78;;
39454;SDS011;25155;41.890;23.446;2023-03-01T04:09:24;5.53;;;3.50;;
39454;SDS011;25155;41.890;23.446;2023-03-01T04:11:51;4.53;;;2.83;;
39454;SDS011;25155;41.890;23.446;2023-03-01T04:14:18;5.10;;;3.22;;
39454;SDS011;25155;41.890;23.446;2023-03-01T04:16:45;5.38;;;3.17;;
39454;SDS011;25155;41.890;23.446;2023-03-01T04:19:12;6.10;;;3.58;;
39454;SDS011;25155;41.890;23.446;2023-03-01T04:21:42;5.97;;;3.63;;
39454;SDS011;25155;41.890;23.446;2023-03-01T04:24:09;5.25;;;2.85;;
39454;SDS011;25155;41.890;23.446;2023-03-01T04:26:37;4.03;;;2.70;;
39454;SDS011;25155;41.890;23.446;2023-03-01T04:29:05;4.25;;;2.60;;
39454;SDS011;25155;41.890;23.446;2023-03-01T04:31:32;4.53;;;2.75;;
39454;SDS011;25155;41.890;23.446;2023-03-01T04:34:00;3.17;;;2.08;;
39454;SDS011;25155;41.890;23.446;2023-03-01T04:36:28;4.50;;;2.90;;
39454;SDS011;25155;41.890;23.446;2023-03-01T04:38:57;4.78;;;2.90;;
39454;SDS011;25155;41.890;23.446;2023-03-01T04:41:24;4.72;;;2.95;;
39454;SDS011;25155;41.890;23.446;2023-03-01T04:43:52;4.25;;;2.67;;
39454;SDS011;25155;41.890;23.446;2023-03-01T04:46:19;4.00;;;2.40;;
39454;SDS011;25155;41.890;23.446;2023-03-01T04:48:48;3.42;;;2.40;;
39454;SDS011;25155;41.890;23.446;2023-03-01T04:51:15;3.40;;;2.40;;
39454;SDS011;25155;41.890;23.446;2023-03-01T04:53:44;3.78;;;2.13;;
39454;SDS011;25155;41.890;23.446;2023-03-01T04:56:13;2.95;;;2.00;;
39454;SDS011;25155;41.890;23.446;2023-03-01T04:58:41;3.60;;;2.30;;
39454;SDS011;25155;41.890;23.446;2023-03-01T05:01:09;3.40;;;2.10;;
39454;SDS011;25155;41.890;23.446;2023-03-01T05:03:40;2.47;;;1.77;;
39454;SDS011;25155;41.890;23.446;2023-03-01T05:06:10;3.10;;;2.00;;
39454;SDS011;25155;41.890;23.446;2023-03-01T05:08:38;3.50;;;2.30;;
39454;SDS011;25155;41.890;23.446;2023-03-01T05:11:06;3.65;;;2.30;;
39454;SDS011;25155;41.890;23.446;2023-03-01T05:13:36;2.78;;;2.05;;
39454;SDS011;25155;41.890;23.446;2023-03-01T05:16:06;3.00;;;2.17;;
39454;SDS011;25155;41.890;23.446;2023-03-01T05:18:36;3.45;;;1.95;;
39454;SDS011;25155;41.890;23.446;2023-03-01T05:21:04;4.20;;;2.70;;
39454;SDS011;25155;41.890;23.446;2023-03-01T05:23:33;4.93;;;3.20;;
39454;SDS011;25155;41.890;23.446;2023-03-01T05:26:01;4.00;;;2.53;;
39454;SDS011;25155;41.890;23.446;2023-03-01T05:28:29;3.95;;;2.45;;
39454;SDS011;25155;41.890;23.446;2023-03-01T05:30:58;3.45;;;2.25;;
39454;SDS011;25155;41.890;23.446;2023-03-01T05:33:25;4.03;;;2.83;;
39454;SDS011;25155;41.890;23.446;2023-03-01T05:35:54;4.80;;;3.28;;
39454;SDS011;25155;41.890;23.446;2023-03-01T05:38:21;4.68;;;3.28;;
39454;SDS011;25155;41.890;23.446;2023-03-01T05:40:49;4.32;;;2.70;;
39454;SDS011;25155;41.890;23.446;2023-03-01T05:43:16;4.82;;;2.70;;
39454;SDS011;25155;41.890;23.446;2023-03-01T05:45:43;4.22;;;3.03;;
39454;SDS011;25155;41.890;23.446;2023-03-01T05:48:13;6.53;;;4.53;;
39454;SDS011;25155;41.890;23.446;2023-03-01T05:50:41;6.07;;;3.78;;
39454;SDS011;25155;41.890;23.446;2023-03-01T05:53:11;5.35;;;3.80;;
39454;SDS011;25155;41.890;23.446;2023-03-01T05:55:40;4.55;;;3.10;;
39454;SDS011;25155;41.890;23.446;2023-03-01T05:58:10;5.10;;;3.08;;
39454;SDS011;25155;41.890;23.446;2023-03-01T06:00:40;4.55;;;3.17;;
39454;SDS011;25155;41.890;23.446;2023-03-01T06:03:09;5.95;;;3.90;;
39454;SDS011;25155;41.890;23.446;2023-03-01T06:05:39;5.72;;;3.88;;
39454;SDS011;25155;41.890;23.446;2023-03-01T06:08:07;6.13;;;3.88;;
39454;SDS011;25155;41.890;23.446;2023-03-01T06:10:36;5.85;;;3.88;;
39454;SDS011;25155;41.890;23.446;2023-03-01T06:13:03;5.53;;;3.63;;
39454;SDS011;25155;41.890;23.446;2023-03-01T06:15:31;5.35;;;3.65;;
39454;SDS011;25155;41.890;23.446;2023-03-01T06:17:58;5.13;;;3.38;;
39454;SDS011;25155;41.890;23.446;2023-03-01T06:20:27;6.18;;;3.83;;
39454;SDS011;25155;41.890;23.446;2023-03-01T06:22:57;6.78;;;4.13;;
39454;SDS011;25155;41.890;23.446;2023-03-01T06:25:26;7.30;;;5.07;;
39454;SDS011;25155;41.890;23.446;2023-03-01T06:27:54;8.05;;;5.15;;
39454;SDS011;25155;41.890;23.446;2023-03-01T06:30:23;8.60;;;6.13;;
39454;SDS011;25155;41.890;23.446;2023-03-01T06:32:51;7.68;;;5.35;;
39454;SDS011;25155;41.890;23.446;2023-03-01T06:35:29;8.30;;;6.05;;
39454;SDS011;25155;41.890;23.446;2023-03-01T06:38:00;9.32;;;6.43;;
39454;SDS011;25155;41.890;23.446;2023-03-01T06:40:28;10.75;;;7.32;;
39454;SDS011;25155;41.890;23.446;2023-03-01T06:42:56;24.13;;;17.60;;
39454;SDS011;25155;41.890;23.446;2023-03-01T06:45:24;22.85;;;15.90;;
39454;SDS011;25155;41.890;23.446;2023-03-01T06:47:52;18.60;;;13.40;;
39454;SDS011;25155;41.890;23.446;2023-03-01T06:50:19;15.65;;;10.75;;
39454;SDS011;25155;41.890;23.446;2023-03-01T06:52:46;11.93;;;8.80;;
39454;SDS011;25155;41.890;23.446;2023-03-01T06:55:15;10.63;;;7.70;;
39454;SDS011;25155;41.890;23.446;2023-03-01T06:57:42;14.30;;;9.43;;
39454;SDS011;25155;41.890;23.446;2023-03-01T07:00:10;13.02;;;8.82;;
39454;SDS011;25155;41.890;23.446;2023-03-01T07:02:38;16.95;;;12.43;;
39454;SDS011;25155;41.890;23.446;2023-03-01T07:05:05;17.52;;;12.80;;
39454;SDS011;25155;41.890;23.446;2023-03-01T07:07:33;23.48;;;17.40;;
39454;SDS011;25155;41.890;23.446;2023-03-01T07:10:00;22.60;;;15.90;;
39454;SDS011;25155;41.890;23.446;2023-03-01T07:12:28;25.50;;;18.20;;
39454;SDS011;25155;41.890;23.446;2023-03-01T07:14:55;22.23;;;15.82;;
39454;SDS011;25155;41.890;23.446;2023-03-01T07:17:23;21.65;;;15.90;;
39454;SDS011;25155;41.890;23.446;2023-03-01T07:19:51;17.77;;;13.32;;
39454;SDS011;25155;41.890;23.446;2023-03-01T07:22:18;19.02;;;14.48;;
39454;SDS011;25155;41.890;23.446;2023-03-01T07:24:45;21.77;;;15.30;;
39454;SDS011;25155;41.890;23.446;2023-03-01T07:27:12;22.05;;;16.33;;
39454;SDS011;25155;41.890;23.446;2023-03-01T07:29:41;17.88;;;12.82;;
39454;SDS011;25155;41.890;23.446;2023-03-01T07:32:08;17.05;;;12.40;;
39454;SDS011;25155;41.890;23.446;2023-03-01T07:34:37;18.38;;;13.32;;
39454;SDS011;25155;41.890;23.446;2023-03-01T07:37:04;22.05;;;14.40;;
39454;SDS011;25155;41.890;23.446;2023-03-01T07:39:31;21.23;;;15.65;;
39454;SDS011;25155;41.890;23.446;2023-03-01T07:41:58;18.83;;;13.77;;
39454;SDS011;25155;41.890;23.446;2023-03-01T07:44:25;20.50;;;15.30;;
39454;SDS011;25155;41.890;23.446;2023-03-01T07:46:54;17.45;;;13.18;;
39454;SDS011;25155;41.890;23.446;2023-03-01T07:49:23;18.58;;;14.00;;
39454;SDS011;25155;41.890;23.446;2023-03-01T07:51:51;22.73;;;16.15;;
39454;SDS011;25155;41.890;23.446;2023-03-01T07:54:18;18.98;;;14.25;;
39454;SDS011;25155;41.890;23.446;2023-03-01T07:56:46;16.10;;;11.07;;
39454;SDS011;25155;41.890;23.446;2023-03-01T07:59:13;18.52;;;13.52;;
39454;SDS011;25155;41.890;23.446;2023-03-01T08:01:40;16.13;;;12.05;;
39454;SDS011;25155;41.890;23.446;2023-03-01T08:04:09;20.70;;;15.35;;
39454;SDS011;25155;41.890;23.446;2023-03-01T08:06:36;17.25;;;12.50;;
39454;SDS011;25155;41.890;23.446;2023-03-01T08:09:03;14.55;;;11.18;;
39454;SDS011;25155;41.890;23.446;2023-03-01T08:11:30;14.68;;;10.52;;
39454;SDS011;25155;41.890;23.446;2023-03-01T08:13:58;13.90;;;10.43;;
39454;SDS011;25155;41.890;23.446;2023-03-01T08:16:25;9.70;;;6.97;;
39454;SDS011;25155;41.890;23.446;2023-03-01T08:18:52;8.43;;;5.78;;
39454;SDS011;25155;41.890;23.446;2023-03-01T08:21:23;8.13;;;5.72;;
39454;SDS011;25155;41.890;23.446;2023-03-01T08:23:50;12.85;;;8.68;;
39454;SDS011;25155;41.890;23.446;2023-03-01T08:26:18;11.75;;;8.68;;
39454;SDS011;25155;41.890;23.446;2023-03-01T08:28:47;9.60;;;7.05;;
39454;SDS011;25155;41.890;23.446;2023-03-01T08:31:16;9.70;;;6.97;;
39454;SDS011;25155;41.890;23.446;2023-03-01T08:33:46;11.23;;;7.47;;
39454;SDS011;25155;41.890;23.446;2023-03-01T08:36:17;13.23;;;9.57;;
39454;SDS011;25155;41.890;23.446;2023-03-01T08:38:48;11.30;;;7.38;;
39454;SDS011;25155;41.890;23.446;2023-03-01T08:41:15;10.45;;;7.50;;
39454;SDS011;25155;41.890;23.446;2023-03-01T08:43:43;13.68;;;9.52;;
39454;SDS011;25155;41.890;23.446;2023-03-01T08:46:10;20.90;;;14.45;;
39454;SDS011;25155;41.890;23.446;2023-03-01T08:48:38;15.88;;;10.55;;
39454;SDS011;25155;41.890;23.446;2023-03-01T08:51:09;15.05;;;11.23;;
39454;SDS011;25155;41.890;23.446;2023-03-01T08:53:39;15.55;;;11.80;;
39454;SDS011;25155;41.890;23.446;2023-03-01T08:56:08;16.08;;;12.13;;
39454;SDS011;25155;41.890;23.446;2023-03-01T08:58:36;14.57;;;10.55;;
39454;SDS011;25155;41.890;23.446;2023-03-01T09:01:06;13.20;;;8.93;;
39454;SDS011;25155;41.890;23.446;2023-03-01T09:03:34;12.98;;;8.98;;
39454;SDS011;25155;41.890;23.446;2023-03-01T09:06:02;15.50;;;11.48;;
39454;SDS011;25155;41.890;23.446;2023-03-01T09:08:34;13.25;;;9.23;;
39454;SDS011;25155;41.890;23.446;2023-03-01T09:11:02;11.52;;;8.57;;
39454;SDS011;25155;41.890;23.446;2023-03-01T09:13:31;10.15;;;7.25;;
39454;SDS011;25155;41.890;23.446;2023-03-01T09:16:00;12.82;;;8.40;;
39454;SDS011;25155;41.890;23.446;2023-03-01T09:18:29;12.15;;;8.40;;
39454;SDS011;25155;41.890;23.446;2023-03-01T09:21:00;14.02;;;10.82;;
39454;SDS011;25155;41.890;23.446;2023-03-01T09:25:54;12.93;;;10.05;;
39454;SDS011;25155;41.890;23.446;2023-03-01T09:28:21;14.45;;;10.48;;
39454;SDS011;25155;41.890;23.446;2023-03-01T09:30:50;12.18;;;8.88;;
39454;SDS011;25155;41.890;23.446;2023-03-01T09:33:17;12.13;;;8.32;;
39454;SDS011;25155;41.890;23.446;2023-03-01T09:35:44;11.75;;;8.73;;
39454;SDS011;25155;41.890;23.446;2023-03-01T09:38:13;11.30;;;8.13;;
39454;SDS011;25155;41.890;23.446;2023-03-01T09:40:41;12.23;;;8.52;;
39454;SDS011;25155;41.890;23.446;2023-03-01T09:43:13;12.60;;;7.90;;
39454;SDS011;25155;41.890;23.446;2023-03-01T09:45:47;9.50;;;6.82;;
39454;SDS011;25155;41.890;23.446;2023-03-01T09:48:21;11.57;;;7.03;;
39454;SDS011;25155;41.890;23.446;2023-03-01T09:50:51;8.82;;;6.47;;
39454;SDS011;25155;41.890;23.446;2023-03-01T09:53:20;10.85;;;8.02;;
39454;SDS011;25155;41.890;23.446;2023-03-01T09:55:50;11.98;;;8.48;;
39454;SDS011;25155;41.890;23.446;2023-03-01T09:58:29;11.23;;;7.50;;
39454;SDS011;25155;41.890;23.446;2023-03-01T10:01:10;9.52;;;6.70;;
39454;SDS011;25155;41.890;23.446;2023-03-01T10:04:00;10.90;;;7.28;;
39454;SDS011;25155;41.890;23.446;2023-03-01T10:06:55;9.13;;;6.97;;
39454;SDS011;25155;41.890;23.446;2023-03-01T10:09:41;9.68;;;6.68;;
39454;SDS011;25155;41.890;23.446;2023-03-01T10:12:11;8.43;;;6.10;;
39454;SDS011;25155;41.890;23.446;2023-03-01T10:14:43;8.13;;;5.50;;
39454;SDS011;25155;41.890;23.446;2023-03-01T10:17:19;8.90;;;5.50;;
39454;SDS011;25155;41.890;23.446;2023-03-01T10:19:54;8.55;;;6.22;;
39454;SDS011;25155;41.890;23.446;2023-03-01T10:22:28;9.50;;;6.38;;
39454;SDS011;25155;41.890;23.446;2023-03-01T10:24:58;6.97;;;5.40;;
39454;SDS011;25155;41.890;23.446;2023-03-01T10:27:31;7.63;;;5.68;;
39454;SDS011;25155;41.890;23.446;2023-03-01T10:30:05;7.25;;;5.22;;
39454;SDS011;25155;41.890;23.446;2023-03-01T10:32:43;8.45;;;6.70;;
39454;SDS011;25155;41.890;23.446;2023-03-01T10:35:18;11.30;;;9.45;;
39454;SDS011;25155;41.890;23.446;2023-03-01T10:37:57;6.82;;;5.28;;
39454;SDS011;25155;41.890;23.446;2023-03-01T10:40:28;7.50;;;5.28;;
39454;SDS011;25155;41.890;23.446;2023-03-01T10:42:57;5.82;;;4.50;;
39454;SDS011;25155;41.890;23.446;2023-03-01T10:45:31;6.47;;;4.72;;
39454;SDS011;25155;41.890;23.446;2023-03-01T10:48:11;6.93;;;4.47;;
39454;SDS011;25155;41.890;23.446;2023-03-01T10:50:40;5.60;;;4.00;;
39454;SDS011;25155;41.890;23.446;2023-03-01T10:53:18;7.40;;;5.13;;
39454;SDS011;25155;41.890;23.446;2023-03-01T10:55:58;8.32;;;5.93;;
39454;SDS011;25155;41.890;23.446;2023-03-01T10:58:28;10.40;;;6.88;;
39454;SDS011;25155;41.890;23.446;2023-03-01T11:00:57;7.95;;;5.90;;
39454;SDS011;25155;41.890;23.446;2023-03-01T11:03:29;7.55;;;5.20;;
39454;SDS011;25155;41.890;23.446;2023-03-01T11:05:58;7.97;;;5.18;;
39454;SDS011;25155;41.890;23.446;2023-03-01T11:08:31;6.15;;;4.45;;
39454;SDS011;25155;41.890;23.446;2023-03-01T11:11:12;6.97;;;4.80;;
39454;SDS011;25155;41.890;23.446;2023-03-01T11:13:49;8.45;;;5.82;;
39454;SDS011;25155;41.890;23.446;2023-03-01T11:16:23;7.18;;;5.20;;
39454;SDS011;25155;41.890;23.446;2023-03-01T11:18:57;7.65;;;5.18;;
39454;SDS011;25155;41.890;23.446;2023-03-01T11:21:28;7.78;;;5.45;;
39454;SDS011;25155;41.890;23.446;2023-03-01T11:24:00;6.78;;;4.40;;
39454;SDS011;25155;41.890;23.446;2023-03-01T11:26:38;5.10;;;3.63;;
39454;SDS011;25155;41.890;23.446;2023-03-01T11:29:11;7.03;;;4.50;;
39454;SDS011;25155;41.890;23.446;2023-03-01T11:31:44;6.15;;;4.45;;
39454;SDS011;25155;41.890;23.446;2023-03-01T11:34:17;7.43;;;4.95;;
39454;SDS011;25155;41.890;23.446;2023-03-01T11:36:52;7.63;;;4.78;;
39454;SDS011;25155;41.890;23.446;2023-03-01T11:39:26;6.72;;;5.25;;
39454;SDS011;25155;41.890;23.446;2023-03-01T11:42:02;5.40;;;3.70;;
39454;SDS011;25155;41.890;23.446;2023-03-01T11:44:38;6.30;;;4.38;;
39454;SDS011;25155;41.890;23.446;2023-03-01T11:49:55;7.82;;;5.90;;
39454;SDS011;25155;41.890;23.446;2023-03-01T11:52:36;8.43;;;6.78;;
39454;SDS011;25155;41.890;23.446;2023-03-01T11:55:20;6.63;;;5.05;;
39454;SDS011;25155;41.890;23.446;2023-03-01T11:58:04;8.63;;;5.38;;
39454;SDS011;25155;41.890;23.446;2023-03-01T12:00:58;7.30;;;5.25;;
39454;SDS011;25155;41.890;23.446;2023-03-01T12:03:46;6.82;;;4.90;;
39454;SDS011;25155;41.890;23.446;2023-03-01T12:09:29;4.95;;;3.53;;
39454;SDS011;25155;41.890;23.446;2023-03-01T12:12:12;7.22;;;4.82;;
39454;SDS011;25155;41.890;23.446;2023-03-01T12:15:03;5.97;;;4.47;;
39454;SDS011;25155;41.890;23.446;2023-03-01T12:20:53;6.20;;;4.20;;
39454;SDS011;25155;41.890;23.446;2023-03-01T12:26:29;6.27;;;3.87;;
39454;SDS011;25155;41.890;23.446;2023-03-01T12:29:02;5.53;;;4.15;;
39454;SDS011;25155;41.890;23.446;2023-03-01T12:31:47;4.80;;;3.45;;
39454;SDS011;25155;41.890;23.446;2023-03-01T12:34:33;5.22;;;3.47;;
39454;SDS011;25155;41.890;23.446;2023-03-01T12:37:23;5.43;;;3.60;;
39454;SDS011;25155;41.890;23.446;2023-03-01T12:40:12;6.07;;;4.50;;
39454;SDS011;25155;41.890;23.446;2023-03-01T12:42:59;4.72;;;3.47;;
39454;SDS011;25155;41.890;23.446;2023-03-01T12:45:38;5.75;;;4.20;;
39454;SDS011;25155;41.890;23.446;2023-03-01T12:48:17;5.88;;;3.83;;
39454;SDS011;25155;41.890;23.446;2023-03-01T12:50:57;5.60;;;4.00;;
39454;SDS011;25155;41.890;23.446;2023-03-01T12:53:31;4.90;;;3.50;;
39454;SDS011;25155;41.890;23.446;2023-03-01T12:56:05;5.50;;;3.72;;
39454;SDS011;25155;41.890;23.446;2023-03-01T12:58:35;6.43;;;3.63;;
39454;SDS011;25155;41.890;23.446;2023-03-01T13:01:13;5.45;;;3.72;;
39454;SDS011;25155;41.890;23.446;2023-03-01T13:03:57;5.43;;;3.97;;
39454;SDS011;25155;41.890;23.446;2023-03-01T13:06:39;5.97;;;4.25;;
39454;SDS011;25155;41.890;23.446;2023-03-01T13:09:14;7.47;;;4.97;;
39454;SDS011;25155;41.890;23.446;2023-03-01T13:11:51;7.88;;;5.47;;
39454;SDS011;25155;41.890;23.446;2023-03-01T13:20:11;10.15;;;6.32;;
39454;SDS011;25155;41.890;23.446;2023-03-01T13:22:41;9.07;;;6.28;;
39454;SDS011;25155;41.890;23.446;2023-03-01T13:25:13;9.32;;;5.47;;
39454;SDS011;25155;41.890;23.446;2023-03-01T13:36:06;7.38;;;5.03;;
39454;SDS011;25155;41.890;23.446;2023-03-01T13:38:37;7.45;;;4.97;;
39454;SDS011;25155;41.890;23.446;2023-03-01T13:41:06;7.20;;;4.93;;
39454;SDS011;25155;41.890;23.446;2023-03-01T13:43:36;6.50;;;4.38;;
39454;SDS011;25155;41.890;23.446;2023-03-01T13:46:08;6.82;;;4.72;;
39454;SDS011;25155;41.890;23.446;2023-03-01T13:48:39;6.10;;;4.60;;
39454;SDS011;25155;41.890;23.446;2023-03-01T13:51:07;7.03;;;4.90;;
39454;SDS011;25155;41.890;23.446;2023-03-01T13:53:39;6.18;;;4.40;;
39454;SDS011;25155;41.890;23.446;2023-03-01T13:56:11;6.32;;;4.68;;
39454;SDS011;25155;41.890;23.446;2023-03-01T13:58:46;8.10;;;5.45;;
39454;SDS011;25155;41.890;23.446;2023-03-01T14:01:26;7.50;;;5.72;;
39454;SDS011;25155;41.890;23.446;2023-03-01T14:03:56;7.30;;;5.20;;
39454;SDS011;25155;41.890;23.446;2023-03-01T14:06:26;9.30;;;5.90;;
39454;SDS011;25155;41.890;23.446;2023-03-01T14:09:01;10.10;;;7.10;;
39454;SDS011;25155;41.890;23.446;2023-03-01T14:14:45;10.77;;;7.65;;
39454;SDS011;25155;41.890;23.446;2023-03-01T14:17:23;18.25;;;12.63;;
39454;SDS011;25155;41.890;23.446;2023-03-01T14:20:09;15.93;;;11.40;;
39454;SDS011;25155;41.890;23.446;2023-03-01T14:22:41;21.60;;;15.18;;
39454;SDS011;25155;41.890;23.446;2023-03-01T14:25:23;21.60;;;15.65;;
39454;SDS011;25155;41.890;23.446;2023-03-01T14:27:58;17.75;;;12.95;;
39454;SDS011;25155;41.890;23.446;2023-03-01T14:30:32;16.38;;;12.07;;
39454;SDS011;25155;41.890;23.446;2023-03-01T14:33:03;20.13;;;13.85;;
39454;SDS011;25155;41.890;23.446;2023-03-01T14:35:33;19.00;;;13.77;;
39454;SDS011;25155;41.890;23.446;2023-03-01T14:38:02;20.70;;;14.48;;
39454;SDS011;25155;41.890;23.446;2023-03-01T14:40:31;18.38;;;13.27;;
39454;SDS011;25155;41.890;23.446;2023-03-01T14:43:01;18.10;;;12.63;;
39454;SDS011;25155;41.890;23.446;2023-03-01T14:45:38;19.05;;;12.98;;
39454;SDS011;25155;41.890;23.446;2023-03-01T14:48:05;16.05;;;11.20;;
39454;SDS011;25155;41.890;23.446;2023-03-01T14:50:34;15.20;;;10.77;;
39454;SDS011;25155;41.890;23.446;2023-03-01T14:53:11;18.67;;;13.13;;
39454;SDS011;25155;41.890;23.446;2023-03-01T14:55:44;17.23;;;12.10;;
39454;SDS011;25155;41.890;23.446;2023-03-01T14:58:18;18.92;;;12.57;;
39454;SDS011;25155;41.890;23.446;2023-03-01T15:00:50;16.27;;;11.73;;
39454;SDS011;25155;41.890;23.446;2023-03-01T15:03:24;12.85;;;10.15;;
39454;SDS011;25155;41.890;23.446;2023-03-01T15:05:57;16.38;;;10.70;;
39454;SDS011;25155;41.890;23.446;2023-03-01T15:08:28;13.35;;;10.02;;
39454;SDS011;25155;41.890;23.446;2023-03-01T15:11:03;13.13;;;10.32;;
39454;SDS011;25155;41.890;23.446;2023-03-01T15:13:33;13.68;;;10.10;;
39454;SDS011;25155;41.890;23.446;2023-03-01T15:16:04;14.30;;;10.68;;
39454;SDS011;25155;41.890;23.446;2023-03-01T15:18:35;14.10;;;10.73;;
39454;SDS011;25155;41.890;23.446;2023-03-01T15:21:08;16.02;;;11.48;;
39454;SDS011;25155;41.890;23.446;2023-03-01T15:23:36;12.25;;;9.32;;
39454;SDS011;25155;41.890;23.446;2023-03-01T15:26:16;11.02;;;8.20;;